Time;durP1;ratioP1;P1;durP2;ratioP2;P2;SDS_P1;SDS_P2;PMS_P1;PMS_P2;Temp;Humidity;BMP_temperature;BMP_pressure;BME280_temperature;BME280_humidity;BME280_pressure;Samples;Min_cycle;Max_cycle;Signal;HPM_P1;HPM_P2
2023/10/09 00:03:06;;;;;;;2.50;0.90;;;;;;;14.65;100.00;100439.03;7393313;19;20572;-55
2023/10/09 00:08:21;;;;;;;0.75;0.55;;;;;;;14.61;100.00;100446.88;7393126;19;20014;-55
2023/10/09 00:10:54;;;;;;;5.00;0.93;;;;;;;14.61;100.00;100430.06;7393273;19;20022;-55
2023/10/09 00:13:31;;;;;;;0.20;0.20;;;;;;;13.99;100.00;100444.38;7392142;19;20014;-55
2023/10/09 00:16:08;;;;;;;1.27;0.52;;;;;;;14.14;100.00;100439.53;7387941;19;20017;-55
2023/10/09 00:18:34;;;;;;;1.25;0.47;;;;;;;13.78;100.00;100445.56;7396756;19;20021;-55
2023/10/09 00:21:12;;;;;;;2.53;0.35;;;;;;;13.56;100.00;100434.75;7391625;19;20011;-56
2023/10/09 00:23:42;;;;;;;1.15;0.73;;;;;;;13.29;100.00;100437.81;7390579;19;20025;-55
2023/10/09 00:26:11;;;;;;;1.70;0.57;;;;;;;13.09;100.00;100429.28;7392926;19;20514;-55
2023/10/09 00:28:47;;;;;;;2.90;0.77;;;;;;;13.04;100.00;100438.31;7396320;19;20022;-55
2023/10/09 00:31:26;;;;;;;2.13;0.65;;;;;;;12.98;100.00;100436.66;7392073;19;20018;-55
2023/10/09 00:33:52;;;;;;;0.90;0.35;;;;;;;13.02;100.00;100429.63;7392656;19;20013;-55
2023/10/09 00:36:28;;;;;;;2.10;0.85;;;;;;;13.56;100.00;100431.94;7392431;19;20047;-55
2023/10/09 00:38:54;;;;;;;0.73;0.63;;;;;;;12.85;100.00;100440.47;7393528;19;20010;-55
2023/10/09 00:41:22;;;;;;;1.08;0.95;;;;;;;13.01;100.00;100444.88;7393192;19;20334;-55
2023/10/09 00:43:51;;;;;;;1.55;0.73;;;;;;;13.16;100.00;100433.75;7393818;19;20014;-55
2023/10/09 00:48:47;;;;;;;3.35;0.75;;;;;;;12.91;100.00;100429.41;7399348;19;20011;-55
2023/10/09 00:51:19;;;;;;;15.10;0.88;;;;;;;13.06;100.00;100433.03;7399394;19;20014;-55
2023/10/09 00:53:53;;;;;;;1.40;0.88;;;;;;;13.25;100.00;100423.25;7399441;19;20070;-55
2023/10/09 00:59:08;;;;;;;5.60;1.92;;;;;;;13.25;100.00;100403.69;7399586;19;20388;-55
2023/10/09 01:01:40;;;;;;;0.35;0.35;;;;;;;13.12;100.00;100417.16;7399144;19;20405;-55
2023/10/09 01:04:10;;;;;;;2.10;0.90;;;;;;;13.07;100.00;100411.44;7399733;19;20014;-55
2023/10/09 01:06:43;;;;;;;0.90;0.55;;;;;;;13.03;100.00;100416.41;7399463;19;20007;-55
2023/10/09 01:09:14;;;;;;;1.05;0.25;;;;;;;12.80;100.00;100417.97;7399847;19;20034;-56
2023/10/09 01:11:48;;;;;;;0.83;0.33;;;;;;;12.76;100.00;100425.78;7397347;19;20455;-55
2023/10/09 01:14:15;;;;;;;0.30;0.30;;;;;;;12.74;100.00;100431.06;7400434;19;20010;-56
2023/10/09 01:16:43;;;;;;;3.10;0.95;;;;;;;12.94;100.00;100422.84;7397599;19;20011;-58
2023/10/09 01:19:13;;;;;;;0.13;0.13;;;;;;;12.88;100.00;100416.38;7398864;19;20074;-57
2023/10/09 01:21:42;;;;;;;2.40;1.07;;;;;;;13.74;100.00;100405.00;7399257;19;20026;-56
2023/10/09 01:24:08;;;;;;;3.20;1.27;;;;;;;13.78;100.00;100409.16;7398038;19;20247;-57
2023/10/09 01:26:40;;;;;;;0.63;0.63;;;;;;;13.45;100.00;100405.78;7399163;19;20014;-57
2023/10/09 01:29:19;;;;;;;10.93;1.10;;;;;;;14.13;100.00;100400.81;7397853;19;20026;-57
2023/10/09 01:31:56;;;;;;;0.32;0.32;;;;;;;14.23;100.00;100393.81;7402457;19;20494;-57
2023/10/09 01:34:24;;;;;;;1.85;0.75;;;;;;;14.18;100.00;100394.53;7395953;19;20018;-57
2023/10/09 01:36:55;;;;;;;0.85;0.60;;;;;;;14.19;100.00;100380.03;7393145;19;20360;-57
2023/10/09 01:39:39;;;;;;;1.40;0.82;;;;;;;14.24;100.00;100381.34;7401542;19;20470;-57
2023/10/09 01:42:06;;;;;;;0.10;0.10;;;;;;;14.30;100.00;100377.41;7399002;19;20017;-57
2023/10/09 01:44:38;;;;;;;1.58;0.50;;;;;;;14.36;100.00;100369.84;7397680;19;20094;-56
2023/10/09 01:47:08;;;;;;;0.52;0.52;;;;;;;14.66;100.00;100373.28;7397227;19;20011;-56
2023/10/09 01:49:37;;;;;;;0.35;0.35;;;;;;;14.47;100.00;100362.88;7397675;19;20547;-56
2023/10/09 01:52:10;;;;;;;0.45;0.45;;;;;;;14.50;100.00;100368.25;7403366;19;20082;-56
2023/10/09 01:54:37;;;;;;;0.70;0.47;;;;;;;14.35;100.00;100364.75;7398171;19;20098;-56
2023/10/09 01:57:12;;;;;;;0.30;0.30;;;;;;;14.72;100.00;100362.16;7398235;19;20007;-56
2023/10/09 01:59:49;;;;;;;1.60;0.50;;;;;;;14.43;100.00;100349.81;7398292;19;20032;-56
2023/10/09 02:02:35;;;;;;;2.90;0.40;;;;;;;14.35;100.00;100367.53;7401419;19;20015;-56
2023/10/09 02:07:51;;;;;;;1.63;0.43;;;;;;;14.26;100.00;100368.41;7398470;19;20010;-56
2023/10/09 02:12:54;;;;;;;0.70;0.70;;;;;;;14.26;100.00;100376.03;7395520;19;20038;-56
2023/10/09 02:15:45;;;;;;;1.20;0.52;;;;;;;14.18;100.00;100377.72;7391793;19;20489;-57
2023/10/09 02:21:00;;;;;;;0.30;0.30;;;;;;;14.09;100.00;100375.03;7392482;19;20439;-57
2023/10/09 02:23:45;;;;;;;0.65;0.55;;;;;;;13.81;100.00;100371.03;7390294;19;20014;-57
2023/10/09 02:26:26;;;;;;;1.48;0.30;;;;;;;14.17;100.00;100371.34;7395489;19;20042;-57
2023/10/09 02:29:38;;;;;;;;;;;;;;;13.36;100.00;100387.06;7394732;19;20090;-57
2023/10/09 02:31:46;;;;;;;1.80;0.63;;;;;;;14.10;100.00;100377.34;7395597;19;19938;-57
2023/10/09 02:34:15;;;;;;;0.95;0.22;;;;;;;13.85;100.00;100382.81;7395018;19;20015;-57
2023/10/09 02:36:42;;;;;;;0.50;0.50;;;;;;;14.15;100.00;100376.66;7393688;19;20010;-57
2023/10/09 02:39:24;;;;;;;7.95;0.52;;;;;;;14.34;100.00;100369.56;7396650;19;20014;-57
2023/10/09 02:41:52;;;;;;;0.63;0.30;;;;;;;14.43;100.00;100361.03;7396197;19;20066;-56
2023/10/09 02:44:24;;;;;;;0.82;0.63;;;;;;;14.23;100.00;100363.00;7396298;19;20029;-57
2023/10/09 02:46:50;;;;;;;3.45;0.85;;;;;;;13.90;100.00;100359.72;7396180;19;20037;-57
2023/10/09 02:49:17;;;;;;;3.28;1.27;;;;;;;13.60;100.00;100362.56;7396114;19;20031;-57
2023/10/09 02:51:47;;;;;;;14.13;1.15;;;;;;;14.37;100.00;100353.81;7396410;19;20034;-56
2023/10/09 02:56:56;;;;;;;0.93;0.65;;;;;;;14.71;100.00;100352.97;7396535;19;20074;-57
2023/10/09 02:59:23;;;;;;;1.40;1.02;;;;;;;14.79;100.00;100365.28;7395034;19;20010;-56
2023/10/09 03:01:52;;;;;;;0.40;0.40;;;;;;;14.79;100.00;100358.94;7395212;19;20022;-56
2023/10/09 03:04:19;;;;;;;6.53;0.93;;;;;;;14.39;100.00;100352.06;7393002;19;20364;-56
2023/10/09 03:06:53;;;;;;;3.30;0.82;;;;;;;13.64;100.00;100370.78;7392186;19;20021;-56
2023/10/09 03:09:26;;;;;;;0.55;0.55;;;;;;;13.55;100.00;100382.84;7395234;19;20014;-56
2023/10/09 03:12:03;;;;;;;0.52;0.40;;;;;;;13.58;100.00;100365.06;7395276;19;20025;-56
2023/10/09 03:14:31;;;;;;;0.55;0.40;;;;;;;13.48;100.00;100365.66;7394795;19;20070;-57
2023/10/09 03:16:58;;;;;;;0.57;0.35;;;;;;;13.78;100.00;100372.00;7393270;19;20018;-56
2023/10/09 03:19:26;;;;;;;1.35;0.93;;;;;;;13.92;100.00;100376.81;7394066;19;20018;-56
2023/10/09 03:21:52;;;;;;;1.38;0.85;;;;;;;14.02;100.00;100365.00;7396191;19;20018;-57
2023/10/09 03:24:19;;;;;;;0.20;0.20;;;;;;;14.43;100.00;100363.06;7392746;19;20010;-56
2023/10/09 03:26:45;;;;;;;1.95;0.70;;;;;;;14.07;100.00;100360.75;7394127;19;20014;-57
2023/10/09 03:29:12;;;;;;;0.47;0.30;;;;;;;13.94;100.00;100352.66;7394790;19;20078;-57
2023/10/09 03:31:38;;;;;;;1.85;0.63;;;;;;;14.15;100.00;100356.28;7394558;19;20081;-56
2023/10/09 03:34:05;;;;;;;0.30;0.10;;;;;;;15.90;100.00;100355.13;7394342;19;20600;-57
2023/10/09 03:36:37;;;;;;;1.38;0.40;;;;;;;14.72;100.00;100365.72;7393285;19;20011;-56
2023/10/09 03:39:54;;;;;;;0.63;0.32;;;;;;;13.87;100.00;100366.28;7393736;19;20037;-56
2023/10/09 03:41:58;;;;;;;1.10;0.43;;;;;;;14.20;100.00;100358.38;7392091;19;20356;-56
2023/10/09 03:44:28;;;;;;;1.48;1.05;;;;;;;14.01;100.00;100340.28;7398637;19;20038;-56
2023/10/09 03:46:55;;;;;;;0.80;0.77;;;;;;;14.43;100.00;100337.84;7393864;19;20423;-57
2023/10/09 03:49:25;;;;;;;3.80;0.30;;;;;;;14.25;100.00;100340.91;7394323;19;20011;-57
2023/10/09 03:51:52;;;;;;;2.92;0.93;;;;;;;14.31;100.00;100361.38;7394375;19;20014;-57
2023/10/09 03:54:23;;;;;;;0.40;0.05;;;;;;;14.22;100.00;100355.88;7397675;19;20471;-57
2023/10/09 03:56:49;;;;;;;0.88;0.80;;;;;;;14.27;100.00;100355.94;7394413;19;20481;-57
2023/10/09 03:59:22;;;;;;;2.47;0.50;;;;;;;14.53;100.00;100353.22;7394514;19;20006;-56
2023/10/09 04:01:50;;;;;;;2.10;0.88;;;;;;;14.59;100.00;100353.31;7392851;19;20497;-56
2023/10/09 04:04:17;;;;;;;0.28;0.28;;;;;;;14.54;100.00;100342.81;7395799;19;20032;-56
2023/10/09 04:06:43;;;;;;;3.70;0.40;;;;;;;14.59;100.00;100350.53;7393969;19;20074;-56
2023/10/09 04:11:46;;;;;;;0.47;0.47;;;;;;;14.54;100.00;100376.44;7393657;19;20473;-56
2023/10/09 04:14:26;;;;;;;0.57;0.47;;;;;;;15.39;100.00;100372.03;7393254;19;20018;-56
2023/10/09 04:16:52;;;;;;;1.10;0.57;;;;;;;14.79;100.00;100393.31;7392270;19;20112;-56
2023/10/09 04:19:22;;;;;;;0.40;0.40;;;;;;;14.73;100.00;100388.91;7397477;19;20024;-56
2023/10/09 04:21:48;;;;;;;2.22;1.05;;;;;;;14.65;100.00;100382.97;7400910;19;20366;-56
2023/10/09 04:26:46;;;;;;;0.35;0.20;;;;;;;15.15;100.00;100364.69;7400904;19;20010;-57
2023/10/09 04:29:28;;;;;;;0.50;0.30;;;;;;;14.49;100.00;100375.09;7400132;19;20381;-57
2023/10/09 04:31:56;;;;;;;0.47;0.30;;;;;;;14.17;100.00;100379.75;7400482;19;20022;-56
2023/10/09 04:34:23;;;;;;;0.40;0.40;;;;;;;14.30;100.00;100385.03;7400931;19;20062;-56
2023/10/09 04:36:53;;;;;;;0.80;0.40;;;;;;;14.38;100.00;100395.34;7398636;19;20415;-56
2023/10/09 04:42:57;;;;;;;0.90;0.50;;;;;;;14.38;100.00;100408.56;7399896;19;20011;-56
2023/10/09 04:45:20;;;;;;;3.92;0.73;;;;;;;14.18;100.00;100405.72;7398887;19;20027;-56
2023/10/09 04:47:58;;;;;;;1.92;0.32;;;;;;;14.28;100.00;100398.72;7399797;19;20462;-56
2023/10/09 04:53:10;;;;;;;0.25;0.20;;;;;;;14.53;100.00;100398.09;7405685;19;20014;-56
2023/10/09 04:55:44;;;;;;;0.45;0.45;;;;;;;14.51;100.00;100395.00;7399960;19;20014;-56
2023/10/09 04:58:23;;;;;;;0.50;0.30;;;;;;;14.44;100.00;100389.81;7401249;19;20017;-56
2023/10/09 05:01:35;;;;;;;0.68;0.60;;;;;;;15.33;100.00;100390.88;7398764;19;20021;-56
2023/10/09 05:06:20;;;;;;;0.70;0.45;;;;;;;13.88;100.00;100404.25;7399431;19;20462;-56
2023/10/09 05:08:48;;;;;;;1.23;0.60;;;;;;;13.76;100.00;100399.69;7399940;19;20014;-56
2023/10/09 05:11:53;;;;;;;1.45;0.15;;;;;;;14.68;100.00;100398.81;7398418;19;20011;-56
2023/10/09 05:14:13;;;;;;;0.52;0.52;;;;;;;14.85;100.00;100394.19;7399369;19;20014;-56
2023/10/09 05:16:55;;;;;;;1.55;0.63;;;;;;;14.93;100.00;100398.09;7398393;19;20015;-56
2023/10/09 05:24:57;;;;;;;0.40;0.20;;;;;;;15.11;100.00;100417.44;7398590;19;20018;-56
2023/10/09 05:30:26;;;;;;;9.10;1.02;;;;;;;15.20;100.00;100416.50;7398016;19;20018;-57
2023/10/09 05:33:14;;;;;;;2.42;1.10;;;;;;;15.22;100.00;100416.00;7398439;19;20343;-57
2023/10/09 05:36:04;;;;;;;1.50;0.95;;;;;;;15.32;100.00;100418.16;7397798;19;20025;-56
2023/10/09 05:38:30;;;;;;;0.68;0.57;;;;;;;15.39;100.00;100422.56;7399824;19;20082;-56
2023/10/09 05:41:30;;;;;;;0.77;0.30;;;;;;;24.68;100.00;100396.03;7397683;19;20081;-56
2023/10/09 05:46:35;;;;;;;7.18;0.77;;;;;;;40.92;42.01;100374.78;7397425;19;20037;-56
2023/10/09 05:49:09;;;;;;;4.05;0.40;;;;;;;41.84;38.71;100374.09;7397407;19;20010;-56
2023/10/09 05:51:42;;;;;;;0.40;0.40;;;;;;;42.10;37.18;100374.13;7402126;19;20015;-56
2023/10/09 05:55:07;;;;;;;0.65;0.40;;;;;;;25.29;94.03;100403.56;7397938;19;20003;-56
2023/10/09 05:58:42;;;;;;;;;;;;;;;17.15;100.00;100416.63;7399335;19;20350;-56
2023/10/09 06:06:01;;;;;;;1.70;0.82;;;;;;;42.28;38.32;100376.84;7395510;19;20480;-56
2023/10/09 06:11:38;;;;;;;1.63;0.52;;;;;;;44.83;32.49;100373.19;7398086;19;20011;-56
2023/10/09 06:16:43;;;;;;;1.55;0.70;;;;;;;27.81;73.69;100389.84;7391472;19;20027;-56
2023/10/09 06:29:35;;;;;;;0.15;0.10;;;;;;;14.92;100.00;100430.19;7395406;19;20011;-57
2023/10/09 06:34:51;;;;;;;1.33;0.15;;;;;;;15.42;100.00;100427.19;7401157;19;20357;-57
2023/10/09 06:42:33;;;;;;;0.20;0.10;;;;;;;14.23;100.00;100422.59;7394322;19;20014;-57
2023/10/09 06:47:53;;;;;;;1.55;0.40;;;;;;;16.76;100.00;100412.91;7396836;19;20022;-57
2023/10/09 06:52:58;;;;;;;0.60;0.20;;;;;;;14.89;100.00;100417.16;7396057;19;20077;-57
2023/10/09 06:55:36;;;;;;;7.78;1.85;;;;;;;16.30;100.00;100411.09;7395761;19;20486;-57
2023/10/09 06:58:09;;;;;;;0.03;0.00;;;;;;;31.18;100.00;100398.59;7398047;19;20454;-58
2023/10/09 07:01:19;;;;;;;0.90;0.68;;;;;;;38.78;44.15;100382.53;7394301;19;20078;-58
2023/10/09 07:03:52;;;;;;;0.50;0.50;;;;;;;35.46;69.41;100399.31;7395466;19;20019;-56
2023/10/09 07:06:24;;;;;;;0.95;0.80;;;;;;;40.58;45.36;100388.19;7394955;19;20042;-56
2023/10/09 07:17:44;;;;;;;0.75;0.40;;;;;;;38.78;52.85;100388.38;7394403;19;20019;-57
2023/10/09 07:22:29;;;;;;;0.28;0.28;;;;;;;45.34;32.71;100383.56;7395338;19;20021;-57
2023/10/09 07:35:47;;;;;;;6.88;0.85;;;;;;;20.20;100.00;100437.09;7394890;19;20011;-57
2023/10/09 07:38:21;;;;;;;1.15;0.55;;;;;;;18.64;100.00;100442.06;7392635;19;20111;-57
2023/10/09 07:43:45;;;;;;;2.33;0.43;;;;;;;17.57;100.00;100433.38;7394742;19;20025;-57
2023/10/09 07:46:32;;;;;;;0.75;0.30;;;;;;;16.85;100.00;100441.56;7397852;19;20018;-57
2023/10/09 07:49:09;;;;;;;0.30;0.30;;;;;;;16.63;100.00;100438.69;7394073;19;20479;-57
2023/10/09 07:51:37;;;;;;;0.20;0.20;;;;;;;16.01;100.00;100450.72;7394017;19;20078;-57
2023/10/09 07:54:09;;;;;;;0.10;0.10;;;;;;;15.98;100.00;100462.19;7399097;19;20010;-57
2023/10/09 07:56:46;;;;;;;0.20;0.20;;;;;;;15.84;100.00;100461.84;7402075;19;20022;-57
2023/10/09 07:59:18;;;;;;;4.57;0.73;;;;;;;16.23;100.00;100467.78;7401330;19;20354;-57
2023/10/09 08:02:02;;;;;;;0.20;0.20;;;;;;;16.18;100.00;100476.13;7400191;19;20023;-57
2023/10/09 08:04:39;;;;;;;0.40;0.17;;;;;;;16.49;100.00;100476.91;7400760;19;20537;-57
2023/10/09 08:07:10;;;;;;;1.75;0.70;;;;;;;16.47;100.00;100487.09;7403361;19;20481;-58
2023/10/09 08:09:48;;;;;;;1.10;0.65;;;;;;;17.02;100.00;100476.19;7399755;19;20048;-58
2023/10/09 08:14:48;;;;;;;2.08;0.52;;;;;;;17.06;100.00;100475.97;7400990;19;20022;-58
2023/10/09 08:17:20;;;;;;;0.73;0.30;;;;;;;17.47;100.00;100474.31;7399325;19;20505;-58
2023/10/09 08:19:54;;;;;;;2.47;0.57;;;;;;;17.59;100.00;100481.53;7403627;19;20014;-57
2023/10/09 08:24:58;;;;;;;0.47;0.20;;;;;;;17.66;100.00;100478.22;7400508;19;20014;-57
2023/10/09 08:33:00;;;;;;;4.43;0.82;;;;;;;17.68;100.00;100506.66;7398862;19;20018;-58
2023/10/09 08:35:32;;;;;;;2.10;0.75;;;;;;;17.88;100.00;100516.94;7400051;19;20018;-58
2023/10/09 08:38:02;;;;;;;1.48;0.30;;;;;;;18.00;100.00;100510.78;7397657;19;20011;-58
2023/10/09 08:40:33;;;;;;;0.10;0.10;;;;;;;18.13;100.00;100516.69;7398598;19;20014;-58
2023/10/09 08:43:17;;;;;;;0.30;0.30;;;;;;;18.21;100.00;100505.69;7399067;19;20339;-58
2023/10/09 08:45:46;;;;;;;0.75;0.43;;;;;;;18.16;100.00;100515.69;7399591;19;20543;-57
2023/10/09 08:48:17;;;;;;;0.40;0.32;;;;;;;18.24;100.00;100510.28;7398984;19;20033;-57
2023/10/09 08:50:45;;;;;;;1.00;0.32;;;;;;;18.12;100.00;100508.75;7400524;19;20010;-57
2023/10/09 08:53:12;;;;;;;0.20;0.15;;;;;;;26.31;100.00;100489.06;7401059;19;20463;-57
2023/10/09 08:55:40;;;;;;;1.42;0.47;;;;;;;41.15;53.08;100472.75;7398812;19;20034;-57
2023/10/09 08:58:17;;;;;;;9.20;0.82;;;;;;;39.69;57.60;100478.22;7401962;19;20018;-57
2023/10/09 09:00:45;;;;;;;1.58;0.52;;;;;;;21.81;100.00;100494.63;7399069;19;20367;-57
2023/10/09 09:03:16;;;;;;;3.20;0.55;;;;;;;19.30;100.00;100503.16;7399717;19;20021;-57
2023/10/09 09:06:08;;;;;;;1.42;0.47;;;;;;;18.96;100.00;100504.56;7398027;19;20017;-57
2023/10/09 09:08:37;;;;;;;2.05;0.90;;;;;;;18.60;100.00;100494.41;7398184;19;20046;-57
2023/10/09 09:11:17;;;;;;;0.32;0.30;;;;;;;19.41;100.00;100491.06;7400266;19;20018;-57
2023/10/09 09:13:48;;;;;;;3.38;1.10;;;;;;;19.85;100.00;100487.22;7400038;19;20013;-57
2023/10/09 09:16:20;;;;;;;2.13;1.60;;;;;;;20.27;100.00;100481.00;7399123;19;20018;-57
2023/10/09 09:19:02;;;;;;;1.45;0.65;;;;;;;19.66;100.00;100487.84;7398775;19;20047;-57
2023/10/09 09:21:30;;;;;;;3.40;0.60;;;;;;;19.86;100.00;100483.09;7398908;19;20011;-57
2023/10/09 09:24:15;;;;;;;2.00;0.10;;;;;;;19.85;100.00;100487.22;7401758;19;20025;-58
2023/10/09 09:26:45;;;;;;;0.98;0.38;;;;;;;19.73;100.00;100483.69;7400366;19;20074;-58
2023/10/09 09:29:18;;;;;;;1.50;0.67;;;;;;;19.74;100.00;100481.63;7399436;19;20330;-58
2023/10/09 09:31:57;;;;;;;0.85;0.40;;;;;;;19.88;100.00;100484.09;7399034;19;20477;-58
2023/10/09 09:34:28;;;;;;;1.42;0.52;;;;;;;20.12;100.00;100486.25;7402396;19;20010;-58
2023/10/09 09:36:57;;;;;;;1.25;0.38;;;;;;;19.97;100.00;100485.81;7397625;19;20018;-58
2023/10/09 09:39:28;;;;;;;2.88;0.85;;;;;;;20.29;100.00;100489.72;7398842;19;20368;-57
2023/10/09 09:42:03;;;;;;;14.00;2.25;;;;;;;20.50;100.00;100484.38;7398027;19;20011;-57
2023/10/09 09:44:43;;;;;;;2.42;0.82;;;;;;;20.44;100.00;100478.78;7401062;19;20011;-57
2023/10/09 09:47:13;;;;;;;1.88;1.08;;;;;;;21.30;100.00;100473.19;7398484;19;20073;-57
2023/10/09 09:49:42;;;;;;;0.90;0.50;;;;;;;20.64;100.00;100463.41;7398175;19;20345;-58
2023/10/09 09:52:11;;;;;;;4.78;0.70;;;;;;;20.63;100.00;100468.31;7398905;19;20014;-57
2023/10/09 09:54:39;;;;;;;5.97;1.20;;;;;;;20.47;100.00;100469.22;7401747;19;20029;-57
2023/10/09 09:57:10;;;;;;;1.30;0.50;;;;;;;24.73;100.00;100472.78;7398808;19;20010;-57
2023/10/09 09:59:49;;;;;;;2.13;1.05;;;;;;;21.29;100.00;100471.69;7398417;19;20015;-57
2023/10/09 10:02:24;;;;;;;5.00;0.98;;;;;;;20.82;100.00;100479.66;7397780;19;20010;-57
2023/10/09 10:04:56;;;;;;;3.05;0.15;;;;;;;20.73;100.00;100474.34;7401460;19;20026;-57
2023/10/09 10:07:25;;;;;;;2.05;1.15;;;;;;;20.60;100.00;100486.34;7396773;19;20011;-57
2023/10/09 10:09:54;;;;;;;10.88;0.73;;;;;;;20.85;100.00;100493.56;7397423;19;20018;-57
2023/10/09 10:13:02;;;;;;;5.65;1.08;;;;;;;21.17;100.00;100495.78;7397441;19;20014;-57
2023/10/09 10:15:56;;;;;;;9.02;0.85;;;;;;;20.99;100.00;100495.19;7395132;19;20018;-57
2023/10/09 10:18:24;;;;;;;4.93;1.40;;;;;;;20.86;100.00;100489.41;7393318;19;20459;-57
2023/10/09 10:21:16;;;;;;;4.40;0.93;;;;;;;22.10;100.00;100485.19;7395092;19;20010;-57
2023/10/09 10:23:47;;;;;;;3.28;0.73;;;;;;;21.01;100.00;100488.97;7395445;19;20335;-57
2023/10/09 10:26:34;;;;;;;2.30;1.00;;;;;;;20.99;100.00;100478.19;7397445;19;20025;-57
2023/10/09 10:33:09;;;;;;;4.35;0.77;;;;;;;21.05;100.00;100481.75;7392284;19;20038;-57
2023/10/09 10:38:55;;;;;;;8.05;2.40;;;;;;;20.96;100.00;100479.25;7396069;19;20007;-57
2023/10/09 10:41:38;;;;;;;9.13;1.63;;;;;;;21.87;100.00;100475.50;7392948;19;20646;-57
2023/10/09 10:46:58;;;;;;;6.03;1.30;;;;;;;21.12;100.00;100469.81;7394254;19;20518;-57
2023/10/09 10:49:26;;;;;;;10.82;1.20;;;;;;;20.88;100.00;100481.13;7394927;19;20013;-57
2023/10/09 10:57:36;;;;;;;5.13;1.70;;;;;;;20.73;100.00;100480.78;7395020;19;20010;-57
2023/10/09 11:03:13;;;;;;;5.70;1.25;;;;;;;20.85;100.00;100484.28;7394689;19;20074;-57
2023/10/09 11:05:42;;;;;;;2.90;0.63;;;;;;;20.90;100.00;100487.03;7394545;19;20007;-57
2023/10/09 11:08:11;;;;;;;2.00;1.30;;;;;;;21.03;100.00;100490.00;7393185;19;20029;-57
2023/10/09 11:10:49;;;;;;;0.77;0.63;;;;;;;22.25;100.00;100479.78;7396648;19;20031;-57
2023/10/09 11:13:30;;;;;;;4.97;1.60;;;;;;;21.35;100.00;100486.53;7393786;19;20021;-57
2023/10/09 11:16:14;;;;;;;1.48;0.50;;;;;;;21.68;100.00;100475.50;7391122;19;20022;-57
2023/10/09 11:19:03;;;;;;;8.48;1.55;;;;;;;21.39;100.00;100487.00;7390521;19;20539;-57
2023/10/09 11:21:40;;;;;;;1.90;0.80;;;;;;;21.36;100.00;100471.06;7391683;19;20051;-57
2023/10/09 11:24:26;;;;;;;0.95;0.40;;;;;;;21.35;100.00;100475.19;7392438;19;20018;-57
2023/10/09 11:26:56;;;;;;;4.75;1.20;;;;;;;21.60;100.00;100465.31;7393961;19;20010;-57
2023/10/09 11:29:28;;;;;;;1.75;0.90;;;;;;;21.80;100.00;100478.94;7388759;19;20011;-57
2023/10/09 11:32:09;;;;;;;5.25;0.50;;;;;;;21.82;100.00;100467.81;7388289;19;20019;-57
2023/10/09 11:34:36;;;;;;;1.65;0.35;;;;;;;21.75;100.00;100474.09;7393063;19;20010;-57
2023/10/09 11:37:15;;;;;;;5.88;0.80;;;;;;;21.63;100.00;100475.59;7386756;19;20359;-57
2023/10/09 11:39:52;;;;;;;1.85;0.60;;;;;;;21.24;100.00;100475.34;7393589;19;20078;-57
2023/10/09 11:42:35;;;;;;;7.40;1.13;;;;;;;22.20;100.00;100460.75;7387902;19;20019;-57
2023/10/09 11:45:24;;;;;;;7.32;0.98;;;;;;;21.69;100.00;100459.25;7393632;19;20094;-57
2023/10/09 11:48:00;;;;;;;2.60;1.02;;;;;;;21.74;100.00;100464.81;7389419;19;20021;-57
2023/10/09 11:50:48;;;;;;;1.08;0.30;;;;;;;21.05;100.00;100464.75;7394668;19;20509;-57
2023/10/09 11:55:48;;;;;;;1.10;0.52;;;;;;;22.20;100.00;100457.94;7390137;19;20031;-57
2023/10/09 11:58:22;;;;;;;2.22;1.40;;;;;;;21.98;100.00;100452.66;7394829;19;20018;-57
2023/10/09 12:00:59;;;;;;;3.80;0.47;;;;;;;22.41;100.00;100456.03;7395444;19;20007;-57
2023/10/09 12:03:29;;;;;;;5.18;0.68;;;;;;;22.31;100.00;100452.06;7391624;19;20010;-57
2023/10/09 12:05:57;;;;;;;0.75;0.68;;;;;;;22.63;100.00;100448.44;7390957;19;20082;-57
2023/10/09 12:08:31;;;;;;;2.35;0.32;;;;;;;22.76;100.00;100448.44;7391175;19;20074;-57
2023/10/09 12:10:58;;;;;;;4.93;0.60;;;;;;;32.20;100.00;100444.91;7395960;19;20014;-57
2023/10/09 12:13:28;;;;;;;2.70;1.10;;;;;;;23.91;100.00;100445.13;7391856;19;20455;-57
2023/10/09 12:15:57;;;;;;;0.90;0.20;;;;;;;22.99;100.00;100453.13;7393201;19;20015;-57
2023/10/09 12:18:34;;;;;;;2.72;0.38;;;;;;;22.71;100.00;100443.63;7391156;19;20480;-57
2023/10/09 12:21:04;;;;;;;2.55;0.75;;;;;;;22.82;100.00;100451.94;7390648;19;20018;-59
2023/10/09 12:23:41;;;;;;;0.87;0.77;;;;;;;23.40;100.00;100441.16;7390301;19;20041;-59
2023/10/09 12:26:14;;;;;;;3.30;0.68;;;;;;;35.20;95.29;100426.78;7390945;19;20251;-60
2023/10/09 12:28:45;;;;;;;1.35;0.28;;;;;;;25.79;100.00;100429.78;7391095;19;20078;-59
2023/10/09 12:31:14;;;;;;;0.90;0.50;;;;;;;23.62;100.00;100426.44;7388439;19;20031;-59
2023/10/09 12:33:42;;;;;;;1.80;0.55;;;;;;;22.95;100.00;100420.66;7391966;19;20017;-60
2023/10/09 12:36:19;;;;;;;1.40;0.25;;;;;;;22.82;100.00;100403.63;7388697;19;20010;-59
2023/10/09 12:38:50;;;;;;;1.20;0.50;;;;;;;22.99;100.00;100406.91;7390562;19;20017;-60
2023/10/09 12:41:19;;;;;;;4.68;0.65;;;;;;;22.99;100.00;100401.97;7394471;19;20011;-58
2023/10/09 12:43:47;;;;;;;4.82;0.40;;;;;;;22.85;100.00;100396.88;7398310;19;20099;-58
2023/10/09 12:46:16;;;;;;;3.35;0.93;;;;;;;23.01;100.00;100402.19;7397154;19;20019;-60
2023/10/09 12:48:46;;;;;;;1.58;0.47;;;;;;;22.73;100.00;100412.59;7396533;19;20022;-58
2023/10/09 12:51:16;;;;;;;3.25;0.50;;;;;;;22.90;100.00;100410.19;7397715;19;20483;-61
2023/10/09 12:53:43;;;;;;;1.20;0.35;;;;;;;22.74;100.00;100397.84;7398826;19;20040;-59
2023/10/09 12:56:11;;;;;;;1.85;0.40;;;;;;;22.65;100.00;100394.69;7396243;19;20007;-61
2023/10/09 12:58:38;;;;;;;1.17;0.45;;;;;;;22.83;100.00;100393.78;7396418;19;20327;-59
2023/10/09 13:01:11;;;;;;;1.27;0.50;;;;;;;22.92;100.00;100390.50;7403924;19;20398;-60
2023/10/09 13:03:38;;;;;;;1.25;0.50;;;;;;;22.67;100.00;100381.50;7399984;19;20019;-57
2023/10/09 13:06:10;;;;;;;7.63;1.00;;;;;;;24.50;100.00;100377.09;7399878;19;20007;-56
2023/10/09 13:08:40;;;;;;;1.45;0.63;;;;;;;23.07;100.00;100380.09;7398751;19;20031;-56
2023/10/09 13:11:10;;;;;;;2.30;0.75;;;;;;;23.10;100.00;100383.94;7400234;19;20038;-56
2023/10/09 13:13:41;;;;;;;2.97;0.98;;;;;;;30.68;100.00;100374.66;7397995;19;20010;-56
2023/10/09 13:16:13;;;;;;;1.08;0.55;;;;;;;31.60;100.00;100374.31;7398030;19;20026;-59
2023/10/09 13:18:49;;;;;;;1.30;0.43;;;;;;;25.46;100.00;100383.88;7394920;19;20025;-60
2023/10/09 13:21:40;;;;;;;1.65;0.10;;;;;;;23.58;100.00;100374.84;7398622;19;20369;-56
2023/10/09 13:24:12;;;;;;;1.17;0.22;;;;;;;23.37;100.00;100374.03;7400713;19;20432;-56
2023/10/09 13:26:40;;;;;;;5.18;0.43;;;;;;;23.54;100.00;100371.53;7400149;19;20007;-58
2023/10/09 13:29:11;;;;;;;1.83;0.40;;;;;;;23.10;100.00;100375.41;7398649;19;20023;-58
2023/10/09 13:31:38;;;;;;;;;;;;;;;36.18;91.17;100367.81;7399129;19;20066;-56
2023/10/09 13:34:09;;;;;;;1.05;0.35;;;;;;;42.76;53.33;100367.16;7399606;19;20256;-59
2023/10/09 13:36:37;;;;;;;1.35;0.20;;;;;;;47.41;39.60;100352.72;7400573;19;20034;-58
2023/10/09 13:39:23;;;;;;;6.03;1.55;;;;;;;49.18;34.63;100359.84;7398733;19;20490;-58
2023/10/09 13:42:06;;;;;;;0.63;0.28;;;;;;;51.16;30.07;100340.97;7397943;19;20010;-58
2023/10/09 13:44:34;;;;;;;20.17;0.90;;;;;;;51.50;28.33;100338.38;7397687;19;20017;-62
2023/10/09 13:47:05;;;;;;;1.23;0.35;;;;;;;36.71;47.36;100353.16;7400392;19;20023;-62
2023/10/09 13:49:32;;;;;;;0.93;0.10;;;;;;;27.59;100.00;100362.16;7400844;19;20349;-60
2023/10/09 13:52:01;;;;;;;4.97;0.65;;;;;;;32.72;79.10;100341.84;7401811;19;20002;-59
2023/10/09 13:56:56;;;;;;;4.63;0.73;;;;;;;39.94;42.80;100328.16;7401341;19;20042;-59
2023/10/09 13:59:25;;;;;;;1.02;0.40;;;;;;;48.12;35.05;100310.22;7398312;19;20018;-60
2023/10/09 14:01:54;;;;;;;1.77;0.28;;;;;;;48.84;31.50;100308.84;7396560;19;20014;-60
2023/10/09 14:04:22;;;;;;;14.52;0.70;;;;;;;48.45;31.24;100299.94;7396952;19;20017;-61
2023/10/09 14:07:34;;;;;;;1.23;0.40;;;;;;;49.26;29.67;100299.88;7396578;19;20334;-60